100LL.CA
Aviation Fuel Pricing for Canadians
Please upgrade your browser - Tested with IE9, FireFox, Chrome, Safari

Fuel Prices Airport Info Airport List METAR / TAF Kneeboard RSS

Reference Airport: Gore Bay-Manitoulin, ON
N 45 53 03   W 082 34 06

CYZE Gore Bay-Manitoulin, ON
WEATHER
METARCYZE 140600Z AUTO 02012KT 9SM BKN012 M16/M17 A2973 RMK SLP087
REF N 45 53 03  W 082 34 06    5WSW    9W (2013)
UTC-5(4)    Elev 623    A5000 A5001 LO4 HI4 HI5 CAP
OPR Gore Bay-Manitoulin Aprt Comsn Tel/Fax 705-282-2101 APM after hrs 705-282-0882/7281/2292
Cert
PFA-1 C-2,3,4,5,6
CUSTAOE/15 888-226-7277 15-00Z May-Oct
FLT PLN NOTAM FILE CYZE
FIC London 866-WXBRIEF (Toll free within Canada) or 866-541-4104 (Toll free within Canada & USA)
WXMETAR AUTO H24 (see COMM) WxCam TAF 11-23Z, issue times: 11, 14, 20Z (DT 10, 14, 20Z)
SERVICES 13-23Z dly exc 25 Dec & 1 Jan O/T call out chg may be levied for one or more svcs. Courtesy car avbl.
FUEL100LL, JA-1, SP
PRICES100LL public: 1.890; current as of 2016-08-03.
OIL100, 15W50, 20W50
S1,2,4,5,6
RWY DATARwy 11(106)/29(286) 5500x100 asphalt
Rwy 05(047)/23(227) 2615x50 ASPH Rwy 23 down 0.61%
RCROpr Ltd win maint. PLR/PCN. Rwy 05/23 No win maint.
LIGHTING11-(TE ME) P1, 29-(TE ME) P1 ARCAL-122.8 type K
COMM
RCOLondon rdo 126.7 (FISE)
ATFUNICOM ltd hrs O/T tfc 122.8 5NM 3600 ASL
AWOS128.725
NAV
NDBGORE BAY YZE 245 (M) N45 55 40 W82 36 52
Effective 0901Z 07 December 2017 to 0901Z 01 February 2018